Time;durP1;ratioP1;P1;durP2;ratioP2;P2;SDS_P1;SDS_P2;PMS_P1;PMS_P2;Temp;Humidity;BMP_temperature;BMP_pressure;BME280_temperature;BME280_humidity;BME280_pressure;Samples;Min_cycle;Max_cycle;Signal;HPM_P1;HPM_P2
2024/03/29 01:44:38;;;;;;;1.17;0.55;;;;;;;7.53;98.21;99271.25;4835177;29;20573;-67
2024/03/29 01:47:06;;;;;;;1.00;0.60;;;;;;;7.56;98.42;99273.50;4849854;29;20583;-68
2024/03/29 01:49:34;;;;;;;1.42;0.90;;;;;;;7.48;98.81;99278.34;4864624;29;20223;-68
2024/03/29 01:52:03;;;;;;;1.00;0.60;;;;;;;7.36;99.86;99281.75;4866923;29;20598;-67
2024/03/29 01:54:31;;;;;;;0.80;0.50;;;;;;;7.34;100.00;99283.03;4858166;29;20195;-67
2024/03/29 01:56:59;;;;;;;0.80;0.50;;;;;;;7.23;100.00;99281.84;4847990;29;20226;-68
2024/03/29 01:59:30;;;;;;;0.80;0.50;;;;;;;7.29;100.00;99286.38;4850954;29;20616;-67
2024/03/29 02:01:59;;;;;;;0.95;0.60;;;;;;;7.22;100.00;99282.91;4867046;29;20219;-68
2024/03/29 02:04:28;;;;;;;0.90;0.70;;;;;;;7.16;100.00;99281.09;4850364;29;20199;-67
2024/03/29 02:06:56;;;;;;;1.25;0.63;;;;;;;7.15;100.00;99290.22;4861981;29;20602;-67
2024/03/29 02:09:25;;;;;;;1.73;0.80;;;;;;;7.12;100.00;99287.94;4847659;29;20290;-68
2024/03/29 02:11:52;;;;;;;0.90;0.60;;;;;;;7.18;100.00;99288.94;4864285;29;20632;-67
2024/03/29 02:14:20;;;;;;;0.90;0.70;;;;;;;7.10;100.00;99287.34;4865030;29;20204;-67
2024/03/29 02:16:48;;;;;;;0.80;0.50;;;;;;;7.12;100.00;99293.31;4848681;29;20191;-68
2024/03/29 02:19:17;;;;;;;0.90;0.65;;;;;;;7.10;100.00;99292.72;4847342;29;20207;-68
2024/03/29 02:21:48;;;;;;;1.30;0.70;;;;;;;7.12;100.00;99287.94;4850038;29;20196;-67
2024/03/29 02:24:18;;;;;;;0.80;0.50;;;;;;;7.16;99.51;99280.28;4850828;29;20208;-67
2024/03/29 02:26:46;;;;;;;0.90;0.70;;;;;;;7.13;99.28;99284.22;4856085;29;20665;-67
2024/03/29 02:29:14;;;;;;;1.13;1.02;;;;;;;7.12;99.17;99285.25;4852348;29;20283;-67
2024/03/29 02:31:42;;;;;;;1.13;0.63;;;;;;;7.16;98.76;99291.88;4849084;29;20236;-67
2024/03/29 02:34:10;;;;;;;2.78;1.10;;;;;;;7.09;98.58;99296.47;4846555;29;20263;-67
2024/03/29 02:36:37;;;;;;;4.20;0.80;;;;;;;6.97;99.15;99298.22;4851862;29;20194;-67
2024/03/29 02:39:05;;;;;;;4.18;1.40;;;;;;;6.93;99.66;99291.59;4848885;29;20282;-68
2024/03/29 02:41:34;;;;;;;0.90;0.50;;;;;;;6.98;99.68;99299.84;4862992;29;20215;-68
2024/03/29 02:44:01;;;;;;;1.25;0.93;;;;;;;6.99;98.97;99301.50;4864311;29;20203;-68
2024/03/29 02:46:29;;;;;;;0.85;0.50;;;;;;;6.97;98.61;99304.38;4861221;29;20194;-67
2024/03/29 02:48:56;;;;;;;0.80;0.50;;;;;;;6.96;98.08;99312.69;4846294;29;20226;-68
2024/03/29 02:51:23;;;;;;;0.80;0.50;;;;;;;6.94;98.77;99312.06;4873283;29;20732;-68
2024/03/29 02:53:50;;;;;;;1.02;0.80;;;;;;;6.84;99.25;99301.81;4846922;29;20211;-68
2024/03/29 02:56:21;;;;;;;0.80;0.52;;;;;;;6.84;98.62;99295.59;4849947;29;20316;-68
2024/03/29 02:58:49;;;;;;;1.48;1.05;;;;;;;6.85;98.55;99305.31;4842075;29;20191;-68
2024/03/29 03:01:17;;;;;;;0.80;0.50;;;;;;;6.85;98.73;99306.13;4863215;29;20219;-66
2024/03/29 03:03:43;;;;;;;1.35;0.95;;;;;;;6.89;98.24;99303.84;4845728;29;20199;-67
2024/03/29 03:06:11;;;;;;;1.23;1.10;;;;;;;6.98;97.87;99308.72;4848600;29;20200;-67
2024/03/29 03:11:24;;;;;;;1.20;1.08;;;;;;;6.81;98.01;99326.44;4848643;29;20226;-67
2024/03/29 03:13:53;;;;;;;0.93;0.70;;;;;;;6.78;97.99;99326.03;4848290;29;20573;-66
2024/03/29 03:16:21;;;;;;;0.80;0.60;;;;;;;6.84;98.11;99333.22;4863826;29;20298;-67
2024/03/29 03:18:50;;;;;;;0.90;0.60;;;;;;;6.74;98.08;99335.56;4844758;29;20185;-67
2024/03/29 03:21:17;;;;;;;1.60;0.70;;;;;;;6.73;97.74;99329.34;4847178;29;20226;-69
2024/03/29 03:23:44;;;;;;;0.90;0.75;;;;;;;6.67;98.89;99329.41;4868226;29;20283;-68
2024/03/29 03:26:12;;;;;;;0.93;0.70;;;;;;;6.71;97.54;99325.25;4863438;29;20202;-66
2024/03/29 03:28:38;;;;;;;0.90;0.60;;;;;;;6.64;97.81;99330.66;4861697;29;20199;-68
2024/03/29 03:31:09;;;;;;;0.80;0.55;;;;;;;6.65;97.61;99334.16;4844821;29;20311;-67
2024/03/29 03:33:36;;;;;;;1.90;1.23;;;;;;;6.67;97.43;99345.53;4867539;29;20200;-67
2024/03/29 03:36:03;;;;;;;2.17;1.00;;;;;;;6.67;97.20;99342.84;4847900;29;20231;-68
2024/03/29 03:38:32;;;;;;;0.80;0.60;;;;;;;6.51;97.67;99342.31;4854318;29;20211;-67
2024/03/29 03:40:59;;;;;;;1.20;0.82;;;;;;;6.44;97.96;99343.34;4843556;29;20223;-67
2024/03/29 03:43:27;;;;;;;0.90;0.60;;;;;;;6.50;98.19;99351.41;4845572;29;20195;-67
2024/03/29 03:45:59;;;;;;;1.00;0.50;;;;;;;6.69;96.24;99356.88;4869089;29;20207;-66
2024/03/29 03:48:29;;;;;;;0.90;0.60;;;;;;;6.75;95.38;99356.03;4846317;29;20229;-66
2024/03/29 03:50:56;;;;;;;0.80;0.50;;;;;;;6.74;95.65;99341.78;4854477;29;20231;-68
2024/03/29 03:53:23;;;;;;;1.13;0.82;;;;;;;6.68;94.74;99342.63;4853887;29;20191;-67
2024/03/29 03:55:50;;;;;;;1.08;0.80;;;;;;;6.77;94.15;99340.53;4867518;29;20616;-67
2024/03/29 03:58:18;;;;;;;1.30;1.10;;;;;;;6.77;93.50;99338.66;4850190;29;20202;-67
2024/03/29 04:00:45;;;;;;;3.88;1.80;;;;;;;6.71;93.19;99325.25;4845476;29;20223;-67
2024/03/29 04:03:12;;;;;;;4.30;0.70;;;;;;;6.72;93.23;99321.53;4861335;29;20197;-67
2024/03/29 04:05:40;;;;;;;1.00;0.60;;;;;;;6.60;93.56;99317.88;4843997;29;20196;-67
2024/03/29 04:08:08;;;;;;;1.92;1.00;;;;;;;6.47;95.14;99319.59;4845578;29;20290;-67
2024/03/29 04:10:38;;;;;;;1.55;1.05;;;;;;;6.39;95.58;99319.00;4830796;29;20606;-68
2024/03/29 04:13:06;;;;;;;0.80;0.60;;;;;;;6.43;96.38;99318.38;4853873;29;20216;-68
2024/03/29 04:15:33;;;;;;;4.25;1.05;;;;;;;6.35;95.86;99328.50;4865065;29;20290;-68
2024/03/29 04:18:01;;;;;;;1.40;1.30;;;;;;;6.30;96.54;99323.78;4843181;29;20195;-68
2024/03/29 04:20:27;;;;;;;2.45;1.52;;;;;;;6.37;96.12;99324.59;4859081;29;20223;-68
2024/03/29 04:22:57;;;;;;;1.35;1.25;;;;;;;6.42;95.39;99322.09;4847192;29;20198;-66
2024/03/29 04:25:24;;;;;;;1.60;0.75;;;;;;;6.40;95.45;99334.91;4853532;29;20209;-67
2024/03/29 04:27:51;;;;;;;0.90;0.60;;;;;;;6.49;95.06;99322.03;4862851;29;20278;-67
2024/03/29 04:30:18;;;;;;;0.80;0.60;;;;;;;6.41;94.81;99325.81;4862452;29;20234;-67
2024/03/29 04:32:46;;;;;;;1.00;0.70;;;;;;;6.58;94.19;99328.00;4857361;29;20652;-68
2024/03/29 04:35:12;;;;;;;0.80;0.60;;;;;;;6.50;94.17;99327.22;4854386;29;20207;-67
2024/03/29 04:37:40;;;;;;;0.80;0.60;;;;;;;6.38;94.84;99318.19;4865439;29;20563;-67
2024/03/29 04:40:11;;;;;;;0.90;0.60;;;;;;;6.37;95.31;99323.75;4866102;29;20219;-68
2024/03/29 04:42:39;;;;;;;0.95;0.68;;;;;;;6.50;94.25;99326.38;4849341;29;20192;-67
2024/03/29 04:45:07;;;;;;;0.80;0.60;;;;;;;6.52;93.75;99322.47;4861693;29;20572;-67
2024/03/29 04:47:35;;;;;;;1.15;0.70;;;;;;;6.57;93.61;99329.88;4837943;29;20210;-68
2024/03/29 04:50:02;;;;;;;1.65;0.60;;;;;;;6.58;93.83;99331.53;4846197;29;20384;-67
2024/03/29 04:52:30;;;;;;;1.30;0.98;;;;;;;6.63;93.19;99322.81;4840846;29;20204;-67
2024/03/29 04:54:58;;;;;;;0.80;0.50;;;;;;;6.62;92.69;99313.09;4862078;29;20199;-67
2024/03/29 04:57:27;;;;;;;0.90;0.70;;;;;;;6.64;92.21;99324.44;4866914;29;20654;-68
2024/03/29 04:59:55;;;;;;;0.80;0.60;;;;;;;6.60;92.22;99324.06;4861297;29;20211;-68
2024/03/29 05:02:22;;;;;;;2.00;1.55;;;;;;;6.61;92.32;99314.97;4861960;29;20685;-67
2024/03/29 05:04:50;;;;;;;0.90;0.60;;;;;;;6.77;91.05;99311.78;4847525;29;20266;-67
2024/03/29 05:07:18;;;;;;;1.80;1.63;;;;;;;6.81;90.36;99314.84;4862415;29;20199;-68
2024/03/29 05:09:46;;;;;;;1.10;0.80;;;;;;;6.79;90.43;99311.53;4840472;29;20238;-67
2024/03/29 05:12:14;;;;;;;1.83;0.80;;;;;;;6.84;89.88;99333.22;4847842;29;20271;-67
2024/03/29 05:14:43;;;;;;;0.80;0.50;;;;;;;6.83;89.43;99345.03;4861821;29;20228;-67
2024/03/29 05:17:11;;;;;;;0.90;0.60;;;;;;;6.87;89.63;99325.56;4847768;29;20243;-68
2024/03/29 05:19:41;;;;;;;0.80;0.50;;;;;;;6.92;88.77;99339.19;4847422;29;20235;-68
2024/03/29 05:22:09;;;;;;;1.40;0.68;;;;;;;6.92;88.91;99346.44;4848872;29;20235;-67
2024/03/29 05:24:36;;;;;;;0.80;0.65;;;;;;;6.95;88.95;99348.69;4857071;29;20215;-67
2024/03/29 05:27:05;;;;;;;0.90;0.60;;;;;;;6.97;89.05;99354.69;4863059;29;20199;-66
2024/03/29 05:29:32;;;;;;;1.00;0.50;;;;;;;7.15;88.21;99348.56;4864980;29;20291;-67
2024/03/29 05:32:02;;;;;;;8.73;0.85;;;;;;;7.25;87.07;99355.13;4864279;29;20217;-67
2024/03/29 05:34:29;;;;;;;0.80;0.50;;;;;;;7.24;85.99;99348.09;4862556;29;20227;-67
2024/03/29 05:36:57;;;;;;;1.00;0.60;;;;;;;7.22;87.03;99366.28;4867113;29;20190;-68
2024/03/29 05:39:25;;;;;;;1.52;1.15;;;;;;;7.36;86.55;99365.16;4844833;29;20195;-68
2024/03/29 05:41:53;;;;;;;1.10;0.90;;;;;;;7.40;85.63;99346.72;4848181;29;20203;-68
2024/03/29 05:44:21;;;;;;;1.48;0.82;;;;;;;7.32;85.62;99331.66;4866352;29;20195;-68
2024/03/29 05:46:50;;;;;;;0.90;0.60;;;;;;;7.38;85.55;99333.50;4844443;29;20193;-68
2024/03/29 05:49:19;;;;;;;1.80;1.52;;;;;;;7.45;84.72;99336.13;4861799;29;20215;-67
2024/03/29 05:51:46;;;;;;;1.20;0.70;;;;;;;7.51;84.71;99339.78;4863031;29;20220;-66
2024/03/29 05:54:14;;;;;;;0.95;0.68;;;;;;;7.54;84.38;99325.91;4830849;29;20268;-67
2024/03/29 05:56:42;;;;;;;0.90;0.70;;;;;;;7.65;84.10;99338.66;4848943;29;20208;-68
2024/03/29 05:59:12;;;;;;;0.80;0.57;;;;;;;7.78;83.83;99350.13;4860680;29;20549;-67
2024/03/29 06:01:39;;;;;;;2.08;1.25;;;;;;;7.73;82.87;99352.66;4861014;29;20218;-68
2024/03/29 06:04:14;;;;;;;3.47;0.80;;;;;;;7.68;83.32;99343.59;4857004;29;20207;-67
2024/03/29 06:06:43;;;;;;;0.80;0.50;;;;;;;7.80;83.16;99347.19;4833433;29;20219;-68
2024/03/29 06:09:11;;;;;;;0.80;0.50;;;;;;;7.80;82.28;99353.41;4864641;29;20199;-68
2024/03/29 06:11:40;;;;;;;1.10;0.68;;;;;;;8.00;81.02;99350.50;4865269;29;20561;-68
2024/03/29 06:19:41;;;;;;;3.05;0.90;;;;;;;8.19;79.51;99372.91;4845413;29;20302;-68
2024/03/29 06:22:10;;;;;;;0.90;0.60;;;;;;;8.34;79.35;99381.50;4862021;29;20207;-66
2024/03/29 06:24:39;;;;;;;0.80;0.50;;;;;;;8.37;78.61;99374.84;4866427;29;20214;-68
2024/03/29 06:27:07;;;;;;;1.05;0.60;;;;;;;8.56;77.54;99379.19;4829317;29;20211;-67
2024/03/29 06:29:34;;;;;;;0.80;0.50;;;;;;;8.69;77.86;99381.69;4854418;29;20591;-66
2024/03/29 06:32:02;;;;;;;3.10;0.82;;;;;;;8.73;76.31;99393.69;4862708;29;20274;-67
2024/03/29 06:34:32;;;;;;;1.27;0.90;;;;;;;8.82;75.49;99389.63;4844297;29;20204;-67
2024/03/29 06:36:59;;;;;;;0.80;0.50;;;;;;;8.77;75.66;99386.78;4858197;29;20200;-67
2024/03/29 06:39:28;;;;;;;0.90;0.57;;;;;;;8.83;76.12;99391.28;4850561;29;20207;-68
2024/03/29 06:41:56;;;;;;;1.00;0.75;;;;;;;9.05;74.28;99402.41;4871030;29;20578;-66
2024/03/29 06:44:24;;;;;;;1.45;0.90;;;;;;;9.09;73.86;99407.13;4862988;29;20208;-66
2024/03/29 06:46:52;;;;;;;2.30;1.38;;;;;;;9.10;73.64;99403.34;4853845;29;20332;-67
2024/03/29 06:49:20;;;;;;;0.90;0.60;;;;;;;9.32;72.20;99408.25;4854376;29;20748;-67
2024/03/29 06:51:48;;;;;;;0.90;0.60;;;;;;;9.34;70.92;99423.19;4845949;29;20272;-68
2024/03/29 06:54:16;;;;;;;1.17;0.80;;;;;;;9.50;71.42;99421.69;4858813;29;20184;-67
2024/03/29 06:56:45;;;;;;;0.90;0.57;;;;;;;9.88;69.55;99416.69;4840003;29;20196;-68
2024/03/29 06:59:13;;;;;;;1.23;0.85;;;;;;;10.07;68.64;99427.44;4845658;29;20203;-67
2024/03/29 07:02:00;;;;;;;1.40;1.10;;;;;;;10.18;66.70;99427.44;4844860;29;20279;-67
2024/03/29 07:04:28;;;;;;;1.10;0.50;;;;;;;10.14;66.10;99436.22;4846755;29;20573;-67
2024/03/29 07:06:57;;;;;;;1.00;0.60;;;;;;;10.13;65.63;99429.16;4861046;29;20790;-66
2024/03/29 07:09:24;;;;;;;0.80;0.50;;;;;;;10.07;65.86;99419.31;4858311;29;20615;-67
2024/03/29 07:11:54;;;;;;;0.90;0.50;;;;;;;10.29;66.03;99412.28;4855818;29;20508;-67
2024/03/29 07:14:23;;;;;;;1.17;0.73;;;;;;;10.44;65.04;99413.47;4850598;29;20208;-67
2024/03/29 07:16:51;;;;;;;0.80;0.50;;;;;;;10.50;64.25;99421.69;4858289;29;20488;-67
2024/03/29 07:19:18;;;;;;;0.90;0.60;;;;;;;10.54;62.97;99444.47;4862543;29;20440;-66
2024/03/29 07:21:47;;;;;;;0.83;0.60;;;;;;;10.60;63.30;99455.16;4858180;29;20782;-67
2024/03/29 07:24:14;;;;;;;1.10;0.63;;;;;;;10.51;63.53;99458.47;4843814;29;20444;-67
2024/03/29 07:26:42;;;;;;;1.20;0.70;;;;;;;10.39;63.42;99472.84;4840236;29;20475;-66
2024/03/29 07:29:11;;;;;;;0.80;0.40;;;;;;;10.58;63.47;99464.59;4849872;29;20430;-67
2024/03/29 07:31:39;;;;;;;0.80;0.50;;;;;;;10.54;62.41;99472.34;4856311;29;21001;-68
2024/03/29 07:34:07;;;;;;;0.90;0.60;;;;;;;10.56;63.04;99470.22;4840878;29;20453;-67
2024/03/29 07:36:35;;;;;;;1.10;0.60;;;;;;;10.59;62.12;99467.06;4844647;29;20459;-67
2024/03/29 07:39:04;;;;;;;1.47;0.60;;;;;;;10.52;62.06;99468.22;4867109;29;20500;-67
2024/03/29 07:41:32;;;;;;;0.90;0.70;;;;;;;10.67;62.15;99490.22;4837272;29;20490;-67
2024/03/29 07:44:00;;;;;;;2.40;0.80;;;;;;;10.87;61.38;99487.97;4841667;29;20507;-67
2024/03/29 07:46:33;;;;;;;1.30;0.77;;;;;;;10.71;61.96;99485.97;4843255;29;20448;-67
2024/03/29 07:49:01;;;;;;;1.83;0.90;;;;;;;10.73;61.47;99484.69;4845041;29;20440;-67
2024/03/29 07:51:29;;;;;;;2.40;0.70;;;;;;;10.69;61.79;99478.09;4861561;29;20540;-68
2024/03/29 07:53:57;;;;;;;0.90;0.60;;;;;;;10.76;61.42;99478.78;4848632;29;20454;-68
2024/03/29 07:56:25;;;;;;;1.03;0.73;;;;;;;10.90;61.07;99480.19;4856854;29;20448;-68
2024/03/29 07:58:53;;;;;;;0.80;0.50;;;;;;;10.87;60.82;99486.06;4859710;29;20453;-67
2024/03/29 08:01:22;;;;;;;5.37;0.83;;;;;;;11.02;60.48;99504.53;4840295;29;20468;-68
2024/03/29 08:03:54;;;;;;;0.90;0.60;;;;;;;11.06;60.87;99504.88;4858179;29;20505;-68
2024/03/29 08:06:23;;;;;;;1.93;0.53;;;;;;;11.07;60.43;99504.63;4858463;29;20949;-67
2024/03/29 08:08:51;;;;;;;0.90;0.70;;;;;;;11.22;60.08;99517.66;4855582;29;20457;-66
2024/03/29 08:11:19;;;;;;;1.93;0.73;;;;;;;11.26;59.55;99511.53;4840870;29;20495;-68
2024/03/29 08:13:47;;;;;;;0.90;0.57;;;;;;;11.38;59.32;99521.47;4855136;29;20447;-69
2024/03/29 08:16:16;;;;;;;1.33;0.80;;;;;;;11.45;59.36;99523.00;4865216;29;20460;-68
2024/03/29 08:18:46;;;;;;;1.30;0.70;;;;;;;11.27;59.70;99506.94;4843776;29;20436;-68
2024/03/29 08:21:15;;;;;;;0.80;0.50;;;;;;;11.27;60.34;99506.94;4865651;29;20460;-67
2024/03/29 08:23:46;;;;;;;1.20;0.70;;;;;;;11.44;60.68;99520.53;4848244;29;20441;-67
2024/03/29 08:26:14;;;;;;;0.80;0.50;;;;;;;11.48;61.34;99529.81;4861856;29;20439;-66
2024/03/29 08:28:42;;;;;;;1.47;0.77;;;;;;;11.63;61.76;99509.25;4846515;29;20795;-67
2024/03/29 08:31:09;;;;;;;1.03;0.90;;;;;;;11.70;63.73;99507.25;4858788;29;20986;-65
2024/03/29 08:33:38;;;;;;;1.10;0.80;;;;;;;11.72;63.98;99488.00;4844239;29;20443;-66
2024/03/29 08:36:08;;;;;;;1.43;0.60;;;;;;;11.87;63.54;99485.59;4840400;29;20438;-67
2024/03/29 08:38:39;;;;;;;1.70;0.80;;;;;;;11.65;64.61;99461.06;4838165;29;20459;-66
2024/03/29 08:41:07;;;;;;;1.27;0.63;;;;;;;11.84;64.75;99453.56;4840439;29;20448;-67
2024/03/29 08:43:35;;;;;;;1.10;0.70;;;;;;;11.99;64.49;99451.13;4843864;29;20800;-65
2024/03/29 08:46:03;;;;;;;1.03;0.73;;;;;;;12.18;63.68;99454.41;4842699;29;20452;-66
2024/03/29 08:48:31;;;;;;;0.90;0.67;;;;;;;12.44;62.45;99461.84;4843461;29;20448;-66
2024/03/29 08:50:58;;;;;;;3.00;1.20;;;;;;;12.55;62.23;99477.22;4850912;29;20466;-67
2024/03/29 08:53:27;;;;;;;1.53;1.43;;;;;;;12.71;61.20;99485.56;4842359;29;20445;-67
2024/03/29 08:55:56;;;;;;;1.67;0.70;;;;;;;12.57;62.46;99482.41;4847433;29;20440;-66
2024/03/29 08:58:24;;;;;;;1.50;1.00;;;;;;;12.78;62.25;99467.22;4848491;29;20460;-68
2024/03/29 09:00:56;;;;;;;1.33;0.73;;;;;;;13.05;60.54;99468.13;4862424;29;20460;-67
2024/03/29 09:03:24;;;;;;;1.57;1.00;;;;;;;13.25;60.24;99471.13;4860328;29;20426;-67
2024/03/29 09:05:52;;;;;;;0.80;0.57;;;;;;;13.34;59.38;99468.75;4856188;29;20489;-67
2024/03/29 09:08:20;;;;;;;0.80;0.50;;;;;;;13.45;57.90;99474.06;4843942;29;20442;-67
2024/03/29 09:10:48;;;;;;;1.53;0.80;;;;;;;13.63;57.30;99477.50;4853071;29;20457;-67
2024/03/29 09:13:18;;;;;;;1.30;0.60;;;;;;;14.00;55.74;99489.28;4846690;29;20795;-67
2024/03/29 09:15:47;;;;;;;1.77;0.50;;;;;;;14.14;53.51;99485.03;4842090;29;20511;-67
2024/03/29 09:18:22;;;;;;;2.10;0.63;;;;;;;14.22;53.50;99490.03;4853427;29;20420;-67
2024/03/29 09:20:58;;;;;;;1.10;0.77;;;;;;;14.14;53.75;99489.66;4858203;29;20462;-66
2024/03/29 09:23:28;;;;;;;1.10;0.70;;;;;;;14.14;55.08;99484.22;4844152;29;20547;-66
2024/03/29 09:25:55;;;;;;;1.43;0.90;;;;;;;14.44;53.78;99491.84;4843398;29;20937;-65
2024/03/29 09:28:26;;;;;;;0.90;0.50;;;;;;;14.38;54.74;99498.34;4831537;29;20568;-66
2024/03/29 09:30:59;;;;;;;1.30;0.73;;;;;;;14.23;53.66;99494.38;4837710;29;20480;-67
2024/03/29 09:33:30;;;;;;;1.30;0.87;;;;;;;14.38;53.82;99496.41;4856127;29;20415;-67
2024/03/29 09:35:58;;;;;;;1.50;0.60;;;;;;;14.55;52.72;99499.00;4859194;29;20463;-65
2024/03/29 09:38:27;;;;;;;0.90;0.50;;;;;;;14.44;53.02;99500.00;4840667;29;20445;-67
2024/03/29 09:41:05;;;;;;;1.63;1.00;;;;;;;14.50;52.53;99498.97;4845744;29;20207;-67
2024/03/29 09:43:34;;;;;;;1.20;0.73;;;;;;;14.17;52.41;99503.59;4866404;29;20423;-66
2024/03/29 09:46:03;;;;;;;1.30;0.93;;;;;;;14.03;52.60;99505.09;4871470;29;20463;-67
2024/03/29 09:48:36;;;;;;;1.30;0.80;;;;;;;13.90;52.92;99510.94;4868205;29;20456;-66
2024/03/29 09:51:05;;;;;;;1.00;0.63;;;;;;;14.22;52.58;99511.78;4848019;29;20878;-64
2024/03/29 09:53:35;;;;;;;0.90;0.77;;;;;;;14.37;52.18;99502.16;4837116;29;20428;-65
2024/03/29 09:56:05;;;;;;;4.00;0.80;;;;;;;14.71;51.31;99506.19;4853547;29;20840;-66
2024/03/29 09:58:34;;;;;;;0.90;0.60;;;;;;;14.91;51.01;99497.34;4860618;29;20447;-65
2024/03/29 10:01:03;;;;;;;1.30;0.77;;;;;;;14.94;49.59;99500.34;4856664;29;20800;-64
2024/03/29 10:03:32;;;;;;;1.40;0.90;;;;;;;14.46;49.35;99498.69;4859137;29;20417;-64
2024/03/29 10:06:01;;;;;;;0.90;0.50;;;;;;;14.40;49.09;99491.56;4846521;29;20409;-67
2024/03/29 10:08:30;;;;;;;1.70;0.80;;;;;;;14.11;50.04;99499.16;4849329;29;20472;-65
2024/03/29 10:10:58;;;;;;;0.90;0.60;;;;;;;14.19;50.44;99487.81;4849691;29;20443;-66
2024/03/29 10:13:27;;;;;;;1.83;0.60;;;;;;;14.37;50.14;99488.53;4844641;29;20434;-66
2024/03/29 10:15:57;;;;;;;1.00;0.50;;;;;;;14.06;50.78;99490.16;4850962;29;20489;-65
2024/03/29 10:18:26;;;;;;;1.83;0.70;;;;;;;14.14;51.12;99489.66;4847810;29;20443;-66
2024/03/29 10:21:01;;;;;;;2.07;0.70;;;;;;;14.11;52.03;99484.75;4861694;29;20472;-66
2024/03/29 10:23:29;;;;;;;1.03;0.83;;;;;;;13.85;54.42;99484.50;4850363;29;20418;-67
2024/03/29 10:25:57;;;;;;;0.93;0.70;;;;;;;13.63;56.18;99467.44;4847063;29;20419;-67
2024/03/29 10:28:34;;;;;;;1.07;0.60;;;;;;;13.38;58.15;99459.84;4846257;29;20511;-67
2024/03/29 10:31:04;;;;;;;1.00;0.63;;;;;;;13.48;58.78;99459.13;4847977;29;20822;-68
2024/03/29 10:33:33;;;;;;;0.90;0.60;;;;;;;13.24;59.37;99464.03;4861863;29;20459;-68
2024/03/29 10:36:04;;;;;;;0.90;0.53;;;;;;;13.23;60.11;99453.41;4861049;29;20448;-69
2024/03/29 10:38:33;;;;;;;0.90;0.57;;;;;;;13.31;60.71;99455.69;4861475;29;20415;-68
2024/03/29 10:41:03;;;;;;;1.47;0.97;;;;;;;13.39;61.26;99442.47;4843567;29;20461;-67
2024/03/29 10:43:31;;;;;;;5.13;0.70;;;;;;;13.30;61.05;99443.19;4858909;29;20496;-68
2024/03/29 10:46:04;;;;;;;2.70;2.00;;;;;;;13.22;61.76;99449.88;4860742;29;20418;-67
2024/03/29 10:48:33;;;;;;;2.60;0.70;;;;;;;13.07;61.80;99452.38;4843499;29;20435;-67
2024/03/29 10:51:01;;;;;;;1.87;0.70;;;;;;;13.18;63.21;99448.75;4864301;29;20789;-67
2024/03/29 10:53:30;;;;;;;0.90;0.60;;;;;;;13.30;63.75;99460.31;4840208;29;20418;-67
2024/03/29 10:55:59;;;;;;;1.10;0.90;;;;;;;13.20;65.31;99457.47;4859587;29;20516;-65
2024/03/29 10:58:34;;;;;;;0.83;0.50;;;;;;;13.45;66.16;99446.06;4849098;29;20443;-67
2024/03/29 11:01:06;;;;;;;1.00;0.57;;;;;;;13.67;65.79;99446.00;4867170;29;20467;-67
2024/03/29 11:03:38;;;;;;;0.80;0.50;;;;;;;13.91;65.25;99439.16;4860811;29;20440;-68
2024/03/29 11:06:07;;;;;;;1.00;0.50;;;;;;;13.78;64.31;99434.16;4855983;29;20908;-68
2024/03/29 11:08:38;;;;;;;1.00;0.73;;;;;;;13.86;63.63;99428.25;4860891;29;20444;-69
2024/03/29 11:11:06;;;;;;;1.67;0.80;;;;;;;13.97;62.94;99418.28;4842289;29;20505;-67
2024/03/29 11:13:39;;;;;;;1.07;0.90;;;;;;;14.12;62.93;99426.56;4855113;29;20448;-67
2024/03/29 11:16:09;;;;;;;1.00;0.60;;;;;;;14.31;62.29;99412.28;4857435;29;20495;-69
2024/03/29 11:18:38;;;;;;;1.83;1.03;;;;;;;14.43;61.89;99400.38;4857729;29;20451;-67
2024/03/29 11:21:09;;;;;;;1.37;1.10;;;;;;;14.64;62.01;99407.59;4841926;29;20476;-67
2024/03/29 11:23:37;;;;;;;2.40;0.80;;;;;;;14.35;60.55;99393.50;4842725;29;20539;-67
2024/03/29 11:26:06;;;;;;;2.30;0.77;;;;;;;14.48;60.37;99393.06;4862120;29;20410;-68
2024/03/29 11:28:35;;;;;;;0.90;0.60;;;;;;;14.30;60.27;99380.69;4846735;29;20445;-70
2024/03/29 11:31:05;;;;;;;0.80;0.50;;;;;;;14.26;61.02;99376.88;4857788;29;20845;-70
2024/03/29 11:33:36;;;;;;;0.80;0.50;;;;;;;14.30;60.92;99369.81;4845112;29;20439;-68
2024/03/29 11:36:12;;;;;;;1.00;0.73;;;;;;;14.42;61.17;99372.38;4858085;29;20502;-68
2024/03/29 11:38:42;;;;;;;1.87;0.70;;;;;;;14.57;60.41;99377.88;4844711;29;20459;-67
2024/03/29 11:41:13;;;;;;;0.80;0.60;;;;;;;14.63;60.11;99376.00;4860018;29;20865;-68
2024/03/29 11:43:43;;;;;;;1.30;0.60;;;;;;;14.64;60.38;99377.66;4862797;29;20419;-67
2024/03/29 11:46:12;;;;;;;1.00;0.60;;;;;;;14.73;60.40;99367.88;4840589;29;20422;-67
2024/03/29 11:48:42;;;;;;;1.30;0.70;;;;;;;15.12;58.90;99360.94;4859262;29;20411;-69
2024/03/29 11:51:14;;;;;;;1.30;0.57;;;;;;;14.87;58.85;99371.75;4845762;29;20520;-67
2024/03/29 11:53:43;;;;;;;4.10;0.80;;;;;;;14.88;59.65;99381.56;4857384;29;20414;-68
2024/03/29 11:56:11;;;;;;;0.87;0.50;;;;;;;14.77;59.66;99372.53;4844388;29;20431;-69
2024/03/29 11:58:39;;;;;;;1.10;0.70;;;;;;;14.80;59.19;99384.81;4852098;29;20411;-66
2024/03/29 12:01:10;;;;;;;0.90;0.57;;;;;;;14.95;58.58;99382.16;4837779;29;20446;-68
2024/03/29 12:03:42;;;;;;;1.00;0.60;;;;;;;14.90;58.38;99386.75;4859856;29;20451;-66
2024/03/29 12:06:10;;;;;;;1.40;0.70;;;;;;;14.95;58.81;99376.69;4848462;29;20407;-67
2024/03/29 12:08:42;;;;;;;1.50;0.80;;;;;;;14.91;61.18;99380.22;4859286;29;20427;-68
2024/03/29 12:11:10;;;;;;;1.77;0.83;;;;;;;14.94;61.44;99390.56;4844165;29;20851;-67
2024/03/29 12:13:40;;;;;;;1.27;0.70;;;;;;;14.22;61.83;99386.66;4856314;29;20557;-68
2024/03/29 12:16:08;;;;;;;0.80;0.50;;;;;;;14.21;63.67;99382.28;4844996;29;20430;-69
2024/03/29 12:18:36;;;;;;;0.90;0.53;;;;;;;14.14;62.54;99389.00;4843275;29;20763;-66
2024/03/29 12:21:06;;;;;;;0.80;0.50;;;;;;;14.20;61.94;99380.63;4853844;29;20860;-67
2024/03/29 12:23:33;;;;;;;0.90;0.60;;;;;;;14.17;64.14;99385.78;4843384;29;20492;-69
2024/03/29 12:26:01;;;;;;;0.90;0.50;;;;;;;14.13;63.55;99382.78;4854564;29;20412;-68
2024/03/29 12:28:33;;;;;;;0.90;0.60;;;;;;;14.12;63.65;99378.41;4861737;29;20451;-68
2024/03/29 12:31:01;;;;;;;1.00;0.70;;;;;;;14.42;63.42;99380.53;4857023;29;20536;-67
2024/03/29 12:33:30;;;;;;;1.33;0.67;;;;;;;14.66;62.39;99370.03;4845473;29;20442;-68
2024/03/29 12:35:59;;;;;;;2.33;0.90;;;;;;;14.86;61.26;99345.63;4855189;29;20461;-68
2024/03/29 12:38:30;;;;;;;1.40;1.13;;;;;;;15.13;59.23;99348.13;4862007;29;20841;-65
2024/03/29 12:40:59;;;;;;;1.10;0.73;;;;;;;15.22;56.09;99351.97;4859047;29;20467;-66
2024/03/29 12:43:27;;;;;;;1.10;0.70;;;;;;;15.76;55.10;99349.59;4856992;29;21123;-68
2024/03/29 12:45:55;;;;;;;1.33;0.70;;;;;;;16.00;54.34;99338.94;4859118;29;20448;-67
2024/03/29 12:48:23;;;;;;;1.57;0.70;;;;;;;16.43;51.98;99345.66;4856824;29;20497;-67
2024/03/29 12:50:53;;;;;;;5.93;1.17;;;;;;;16.36;51.34;99328.75;4841958;29;20826;-68
2024/03/29 12:53:21;;;;;;;1.30;0.67;;;;;;;16.64;50.30;99344.53;4840132;29;20480;-67
2024/03/29 12:55:51;;;;;;;1.20;0.73;;;;;;;16.64;49.49;99350.00;4844275;29;20444;-68
2024/03/29 12:58:21;;;;;;;6.70;1.53;;;;;;;16.74;49.12;99360.88;4854127;29;20445;-70
2024/03/29 13:00:50;;;;;;;0.90;0.50;;;;;;;16.50;48.85;99370.75;4863539;29;20463;-69
2024/03/29 13:03:18;;;;;;;2.30;0.80;;;;;;;16.58;49.22;99351.09;4839999;29;20419;-67
2024/03/29 13:05:45;;;;;;;1.67;1.10;;;;;;;16.72;48.79;99346.66;4841671;29;20830;-68
2024/03/29 13:08:15;;;;;;;1.50;1.27;;;;;;;16.53;48.57;99353.81;4844125;29;20419;-68
2024/03/29 13:10:43;;;;;;;1.00;0.70;;;;;;;16.18;48.79;99349.25;4851676;29;20447;-68
2024/03/29 13:13:13;;;;;;;1.80;1.30;;;;;;;16.29;48.74;99361.81;4858038;29;20975;-67
2024/03/29 13:15:42;;;;;;;1.00;0.63;;;;;;;16.03;47.78;99343.81;4840930;29;20479;-67
2024/03/29 13:18:10;;;;;;;1.77;0.93;;;;;;;15.72;47.99;99337.59;4858265;29;20924;-68
2024/03/29 13:20:40;;;;;;;0.90;0.60;;;;;;;15.53;47.34;99334.59;4828368;29;20451;-67
2024/03/29 13:23:09;;;;;;;1.47;0.60;;;;;;;15.30;47.25;99326.91;4856570;29;20880;-67
2024/03/29 13:25:36;;;;;;;0.90;0.57;;;;;;;15.43;47.29;99318.22;4843451;29;20448;-65
2024/03/29 13:28:05;;;;;;;2.30;0.60;;;;;;;15.43;47.94;99325.56;4853220;29;20538;-67
2024/03/29 13:30:37;;;;;;;1.00;0.60;;;;;;;15.60;48.04;99320.69;4841677;29;20463;-68
2024/03/29 13:33:05;;;;;;;1.07;0.70;;;;;;;15.85;46.60;99331.59;4853877;29;20471;-69
2024/03/29 13:35:34;;;;;;;0.80;0.50;;;;;;;15.90;46.70;99317.94;4844908;29;20444;-68